createdAt,value
2018-08-24T00:02:27.027Z,21.24
2018-08-24T00:04:56.787Z,21.21
2018-08-24T00:07:26.670Z,21.21
2018-08-24T00:09:56.432Z,21.15
2018-08-24T00:12:26.240Z,21.13
2018-08-24T00:14:56.001Z,21.21
2018-08-24T00:17:31.772Z,21.24
2018-08-24T00:20:01.989Z,21.23
2018-08-24T00:22:31.698Z,21.23
2018-08-24T00:25:01.474Z,21.21
2018-08-24T00:27:31.194Z,21.25
2018-08-24T00:30:00.918Z,21.27
2018-08-24T00:32:30.620Z,21.24
2018-08-24T00:35:00.332Z,21.24
2018-08-24T00:37:30.048Z,21.26
2018-08-24T00:39:59.875Z,21.25
2018-08-24T00:42:29.626Z,21.26
2018-08-24T00:44:59.384Z,21.27
2018-08-24T00:47:29.139Z,21.24
2018-08-24T00:49:58.926Z,21.25
2018-08-24T00:52:28.662Z,21.30
2018-08-24T00:54:58.507Z,21.29
2018-08-24T00:57:28.236Z,21.29
2018-08-24T00:59:57.990Z,21.28
2018-08-24T01:02:27.368Z,21.27
2018-08-24T01:04:57.144Z,21.27
2018-08-24T01:07:26.899Z,21.26
2018-08-24T01:09:56.716Z,21.25
2018-08-24T01:12:26.420Z,21.25
2018-08-24T01:14:56.188Z,21.24
2018-08-24T01:17:30.989Z,21.21
2018-08-24T01:20:00.446Z,21.12
2018-08-24T01:22:30.132Z,21.02
2018-08-24T01:24:59.912Z,20.95
2018-08-24T01:27:29.356Z,20.88
2018-08-24T01:29:59.133Z,20.83
2018-08-24T01:32:28.836Z,20.76
2018-08-24T01:34:58.584Z,20.74
2018-08-24T01:37:28.276Z,20.75
2018-08-24T01:39:58.002Z,20.82
2018-08-24T01:42:27.695Z,20.82
2018-08-24T01:44:57.066Z,20.84
2018-08-24T01:47:26.766Z,20.84
2018-08-24T01:49:56.503Z,20.83
2018-08-24T01:52:26.232Z,20.78
2018-08-24T01:54:55.907Z,20.68
2018-08-24T01:57:26.103Z,20.59
2018-08-24T01:59:55.879Z,20.48
2018-08-24T02:02:25.563Z,20.38
2018-08-24T02:04:55.413Z,20.27
2018-08-24T02:07:25.119Z,20.20
2018-08-24T02:09:54.803Z,20.13
2018-08-24T02:12:29.575Z,20.13
2018-08-24T02:14:59.302Z,20.16
2018-08-24T02:17:33.963Z,20.19
2018-08-24T02:20:08.715Z,20.22
2018-08-24T02:22:38.432Z,20.33
2018-08-24T02:25:08.199Z,20.40
2018-08-24T02:27:38.004Z,20.29
2018-08-24T02:30:07.805Z,20.18
2018-08-24T02:32:37.615Z,20.13
2018-08-24T02:35:09.169Z,20.12
2018-08-24T02:37:38.943Z,20.06
2018-08-24T02:40:08.675Z,19.98
2018-08-24T02:42:38.377Z,20.07
2018-08-24T02:45:08.200Z,20.11
2018-08-24T02:47:38.028Z,20.19
2018-08-24T02:50:07.872Z,20.26
2018-08-24T02:52:37.679Z,20.26
2018-08-24T02:55:08.697Z,20.27
2018-08-24T02:57:38.534Z,20.24
2018-08-24T03:00:08.426Z,20.22
2018-08-24T03:02:38.199Z,20.13
2018-08-24T03:05:08.601Z,20.12
2018-08-24T03:07:38.289Z,20.06
2018-08-24T03:10:08.075Z,19.98
2018-08-24T03:12:37.867Z,19.91
2018-08-24T03:15:07.713Z,19.89
2018-08-24T03:17:42.574Z,19.91
2018-08-24T03:20:12.371Z,19.93
2018-08-24T03:22:42.095Z,19.90
2018-08-24T03:25:11.875Z,19.85
2018-08-24T03:27:41.619Z,19.81
2018-08-24T03:30:11.431Z,19.75
2018-08-24T03:32:41.198Z,19.74
2018-08-24T03:35:10.967Z,19.72
2018-08-24T03:37:40.835Z,19.68
2018-08-24T03:40:10.624Z,19.60
2018-08-24T03:42:40.379Z,19.54
2018-08-24T03:45:10.190Z,19.62
2018-08-24T03:47:40.107Z,19.55
2018-08-24T03:50:10.087Z,19.48
2018-08-24T03:52:39.843Z,19.42
2018-08-24T03:55:09.771Z,19.42
2018-08-24T03:57:39.127Z,19.40
2018-08-24T04:00:08.959Z,19.40
2018-08-24T04:02:38.667Z,19.38
2018-08-24T04:05:08.125Z,19.37
2018-08-24T04:07:37.911Z,19.37
2018-08-24T04:10:08.342Z,19.35
2018-08-24T04:12:38.256Z,19.33
2018-08-24T04:15:08.254Z,19.34
2018-08-24T04:17:42.774Z,19.34
2018-08-24T04:20:13.085Z,19.40
2018-08-24T04:22:43.113Z,19.41
2018-08-24T04:25:12.882Z,19.44
2018-08-24T04:27:42.650Z,19.51
2018-08-24T04:30:12.422Z,19.54
2018-08-24T04:32:42.361Z,19.54
2018-08-24T04:35:12.234Z,19.58
2018-08-24T04:37:42.076Z,19.65
2018-08-24T04:40:11.938Z,19.68
2018-08-24T04:42:41.311Z,19.65
2018-08-24T04:45:11.270Z,19.64
2018-08-24T04:47:41.079Z,19.65
2018-08-24T04:50:10.509Z,19.77
2018-08-24T04:52:39.843Z,19.90
2018-08-24T04:55:09.214Z,19.99
2018-08-24T04:57:38.662Z,20.02
2018-08-24T05:00:09.900Z,19.96
2018-08-24T05:02:39.622Z,19.91
2018-08-24T05:05:10.029Z,19.89
2018-08-24T05:07:39.453Z,19.95
2018-08-24T05:10:08.869Z,20.04
2018-08-24T05:12:38.232Z,20.10
2018-08-24T05:15:07.812Z,20.13
2018-08-24T05:17:38.179Z,20.18
2018-08-24T05:20:07.885Z,20.23
2018-08-24T05:22:37.529Z,20.38
2018-08-24T05:25:07.130Z,20.60
2018-08-24T05:27:37.257Z,20.86
2018-08-24T05:30:09.168Z,20.91
2018-08-24T05:32:38.867Z,20.93
2018-08-24T05:35:08.365Z,20.95
2018-08-24T05:37:38.244Z,21.01
2018-08-24T05:40:07.822Z,21.07
2018-08-24T05:42:37.969Z,21.16
2018-08-24T05:45:08.061Z,21.33
2018-08-24T05:47:37.761Z,21.58
2018-08-24T05:50:08.070Z,21.83
2018-08-24T05:52:37.766Z,22.09
2018-08-24T05:55:07.313Z,22.34
2018-08-24T05:57:37.441Z,22.52
2018-08-24T06:00:07.116Z,22.65
2018-08-24T06:02:36.523Z,22.84
2018-08-24T06:05:06.501Z,22.88
2018-08-24T06:07:36.384Z,22.89
2018-08-24T06:10:06.925Z,22.80
2018-08-24T06:12:36.705Z,22.85
2018-08-24T06:15:06.771Z,22.94
2018-08-24T06:17:41.924Z,23.00
2018-08-24T06:20:11.850Z,22.94
2018-08-24T06:22:41.938Z,22.83
2018-08-24T06:25:12.942Z,22.66
2018-08-24T06:27:43.334Z,22.52
2018-08-24T06:30:13.223Z,22.36
2018-08-24T06:32:43.268Z,22.36
2018-08-24T06:35:14.048Z,22.34
2018-08-24T06:37:44.031Z,22.28
2018-08-24T06:40:14.066Z,22.31
2018-08-24T06:42:43.935Z,22.40
2018-08-24T06:45:13.881Z,22.45
2018-08-24T06:47:44.098Z,22.69
2018-08-24T06:50:13.769Z,22.85
2018-08-24T06:52:43.882Z,23.33
2018-08-24T06:55:13.881Z,23.50
2018-08-24T06:57:43.785Z,23.28
2018-08-24T07:00:13.305Z,23.10
2018-08-24T07:02:42.805Z,23.02
2018-08-24T07:05:12.288Z,23.24
2018-08-24T07:07:41.869Z,23.26
2018-08-24T07:10:11.841Z,23.10
2018-08-24T07:12:41.821Z,22.95
2018-08-24T07:15:11.416Z,22.91
2018-08-24T07:17:46.189Z,22.87
2018-08-24T07:20:16.333Z,23.30
2018-08-24T07:22:46.977Z,23.63
2018-08-24T07:25:31.504Z,23.81
2018-08-24T07:28:01.022Z,23.99
2018-08-24T07:30:31.128Z,23.81
2018-08-24T07:33:01.141Z,23.66
2018-08-24T07:35:31.092Z,23.50
2018-08-24T07:38:01.186Z,23.32
2018-08-24T07:40:31.060Z,23.30
2018-08-24T07:43:00.991Z,23.43
2018-08-24T07:45:30.778Z,23.54
2018-08-24T07:48:00.334Z,23.42
2018-08-24T07:50:29.978Z,23.32
2018-08-24T07:52:59.496Z,23.59
2018-08-24T07:55:29.410Z,23.89
2018-08-24T07:57:59.834Z,23.84
2018-08-24T08:00:29.604Z,23.90
2018-08-24T08:02:59.184Z,23.98
2018-08-24T08:05:28.756Z,24.25
2018-08-24T08:07:58.317Z,24.47
2018-08-24T08:10:32.345Z,24.92
2018-08-24T08:13:02.301Z,25.28
2018-08-24T08:15:32.341Z,25.91
2018-08-24T08:18:02.353Z,26.48
2018-08-24T08:20:32.685Z,26.44
2018-08-24T08:23:02.593Z,26.07
2018-08-24T08:25:32.218Z,25.62
2018-08-24T08:28:01.745Z,25.68
2018-08-24T08:30:31.621Z,25.86
2018-08-24T08:33:01.543Z,25.57
2018-08-24T08:35:31.436Z,25.46
2018-08-24T08:38:01.289Z,25.31
2018-08-24T08:40:30.793Z,25.56
2018-08-24T08:43:00.265Z,25.29
2018-08-24T08:45:30.126Z,25.38
2018-08-24T08:47:59.910Z,25.26
2018-08-24T08:50:29.935Z,25.12
2018-08-24T08:53:00.298Z,25.31
2018-08-24T08:55:29.959Z,25.96
2018-08-24T08:57:59.535Z,26.22
2018-08-24T09:00:29.085Z,26.34
2018-08-24T09:02:59.749Z,26.42
2018-08-24T09:05:29.321Z,26.86
2018-08-24T09:07:59.284Z,26.83
2018-08-24T09:10:29.633Z,27.09
2018-08-24T09:13:00.995Z,26.76
2018-08-24T09:15:30.723Z,26.22
2018-08-24T09:18:05.959Z,26.66
2018-08-24T09:20:41.433Z,26.40
2018-08-24T09:23:16.307Z,26.01
2018-08-24T09:25:51.335Z,25.92
2018-08-24T09:28:26.669Z,25.99
2018-08-24T09:31:00.676Z,26.10
2018-08-24T09:33:30.213Z,26.44
2018-08-24T09:36:04.211Z,25.99
2018-08-24T09:38:34.448Z,25.65
2018-08-24T09:41:04.655Z,25.76
2018-08-24T09:43:39.749Z,26.19
2018-08-24T09:46:10.356Z,26.49
2018-08-24T09:48:46.064Z,26.56
2018-08-24T09:51:20.977Z,26.13
2018-08-24T09:53:56.049Z,25.56
2018-08-24T09:56:25.656Z,25.83
2018-08-24T09:58:55.655Z,26.37
2018-08-24T10:01:30.739Z,26.71
2018-08-24T10:04:05.669Z,26.17
2018-08-24T10:06:40.667Z,25.95
2018-08-24T10:09:13.136Z,26.24
2018-08-24T10:11:42.728Z,26.15
2018-08-24T10:14:13.104Z,25.71
2018-08-24T10:16:45.384Z,25.64
2018-08-24T10:19:16.076Z,25.66
2018-08-24T10:21:50.240Z,25.79
2018-08-24T10:24:20.233Z,25.47
2018-08-24T10:26:50.375Z,25.79
2018-08-24T10:29:20.106Z,26.29
2018-08-24T10:31:50.056Z,26.32
2018-08-24T10:34:20.590Z,25.98
2018-08-24T10:36:50.341Z,26.11
2018-08-24T10:39:20.504Z,26.50
2018-08-24T10:41:50.370Z,27.27
2018-08-24T10:44:20.320Z,27.48
2018-08-24T10:46:50.371Z,27.08
2018-08-24T10:49:20.535Z,26.65
2018-08-24T10:51:50.416Z,27.02
2018-08-24T10:54:21.556Z,27.35
2018-08-24T10:56:51.629Z,26.83
2018-08-24T10:59:21.524Z,27.52
2018-08-24T11:01:51.407Z,27.86
2018-08-24T11:04:21.305Z,27.92
2018-08-24T11:09:47.853Z,27.95
2018-08-24T11:12:47.376Z,27.95
2018-08-24T11:15:51.550Z,28.00
2018-08-24T11:18:21.456Z,27.77
2018-08-24T11:20:51.229Z,27.58
2018-08-24T11:23:20.867Z,27.83
2018-08-24T11:25:50.915Z,28.10
2018-08-24T11:28:20.533Z,28.00
2018-08-24T11:30:50.871Z,27.71
2018-08-24T11:33:21.720Z,27.79
2018-08-24T11:35:51.550Z,27.92
2018-08-24T11:38:21.594Z,27.89
2018-08-24T11:40:51.377Z,27.76
2018-08-24T11:43:23.119Z,27.71
2018-08-24T11:45:52.898Z,27.70
2018-08-24T11:48:22.729Z,27.63
2018-08-24T11:50:52.324Z,27.67
2018-08-24T11:53:22.251Z,27.41
2018-08-24T11:55:52.003Z,26.95
2018-08-24T11:58:22.323Z,26.78
2018-08-24T12:00:52.061Z,26.80
2018-08-24T12:03:21.865Z,26.80
2018-08-24T12:05:51.714Z,27.10
2018-08-24T12:08:21.531Z,27.63
2018-08-24T12:10:51.405Z,27.56
2018-08-24T12:13:21.388Z,27.73
2018-08-24T12:15:51.941Z,28.38
2018-08-24T12:18:22.143Z,28.59
2018-08-24T12:20:52.102Z,28.46
2018-08-24T12:23:21.785Z,28.26
2018-08-24T12:25:51.466Z,27.79
2018-08-24T12:28:21.132Z,27.86
2018-08-24T12:30:50.873Z,28.34
2018-08-24T12:33:20.936Z,28.25
2018-08-24T12:35:50.552Z,28.73
2018-08-24T12:38:20.562Z,28.98
2018-08-24T12:40:50.643Z,28.80
2018-08-24T12:43:20.631Z,28.52
2018-08-24T12:45:50.431Z,28.14
2018-08-24T12:48:20.020Z,28.28
2018-08-24T12:50:49.948Z,27.90
2018-08-24T12:53:20.355Z,27.50
2018-08-24T12:55:50.576Z,26.97
2018-08-24T12:58:20.191Z,26.63
2018-08-24T13:00:50.167Z,26.26
2018-08-24T13:03:20.144Z,25.53
2018-08-24T13:05:50.124Z,25.04
2018-08-24T13:08:20.247Z,25.01
2018-08-24T13:10:49.711Z,25.24
2018-08-24T13:13:19.508Z,25.52
2018-08-24T13:15:49.087Z,25.64
2018-08-24T13:18:19.325Z,25.75
2018-08-24T13:20:48.883Z,25.81
2018-08-24T13:23:18.764Z,25.80
2018-08-24T13:25:48.747Z,25.89
2018-08-24T13:28:18.560Z,26.34
2018-08-24T13:30:50.059Z,26.20
2018-08-24T13:33:19.650Z,26.14
2018-08-24T13:35:49.259Z,26.01
2018-08-24T13:38:19.275Z,25.65
2018-08-24T13:40:48.852Z,25.57
2018-08-24T13:43:18.847Z,25.45
2018-08-24T13:45:49.041Z,25.54
2018-08-24T13:48:18.777Z,25.52
2018-08-24T13:50:48.304Z,25.57
2018-08-24T13:53:18.079Z,25.54
2018-08-24T13:55:48.643Z,25.50
2018-08-24T13:58:19.583Z,25.38
2018-08-24T14:00:49.476Z,25.30
2018-08-24T14:03:20.279Z,25.37
2018-08-24T14:05:50.733Z,25.39
2018-08-24T14:08:22.290Z,25.43
2018-08-24T14:10:52.375Z,25.74
2018-08-24T14:13:24.915Z,25.90
2018-08-24T14:15:54.595Z,25.77
2018-08-24T14:18:24.523Z,25.92
2018-08-24T14:20:55.130Z,26.14
2018-08-24T14:23:24.676Z,26.21
2018-08-24T14:25:54.563Z,26.45
2018-08-24T14:28:24.978Z,26.52
2018-08-24T14:30:55.359Z,26.41
2018-08-24T14:33:25.479Z,25.97
2018-08-24T14:35:55.569Z,25.68
2018-08-24T14:38:26.069Z,25.68
2018-08-24T14:40:55.734Z,25.50
2018-08-24T14:43:25.430Z,25.27
2018-08-24T14:45:55.270Z,25.31
2018-08-24T14:48:25.016Z,25.46
2018-08-24T14:50:55.215Z,25.62
2018-08-24T14:53:25.239Z,25.68
2018-08-24T14:55:54.784Z,25.51
2018-08-24T14:58:24.898Z,25.26
2018-08-24T15:00:54.410Z,25.08
2018-08-24T15:03:24.134Z,25.04
2018-08-24T15:05:53.830Z,25.05
2018-08-24T15:08:23.347Z,24.98
2018-08-24T15:10:54.498Z,25.20
2018-08-24T15:13:23.932Z,25.30
2018-08-24T15:15:53.734Z,25.39
2018-08-24T15:18:23.342Z,25.39
2018-08-24T15:20:53.343Z,25.49
2018-08-24T15:23:23.182Z,25.28
2018-08-24T15:25:52.942Z,25.23
2018-08-24T15:28:24.196Z,25.43
2018-08-24T15:30:54.018Z,25.45
2018-08-24T15:33:23.485Z,25.27
2018-08-24T15:35:53.358Z,25.11
2018-08-24T15:38:25.034Z,25.17
2018-08-24T15:40:55.702Z,25.05
2018-08-24T15:43:27.286Z,24.62
2018-08-24T15:45:59.181Z,24.50
2018-08-24T15:48:30.717Z,24.36
2018-08-24T15:51:03.042Z,24.25
2018-08-24T15:53:35.654Z,24.20
2018-08-24T15:56:08.132Z,24.16
2018-08-24T15:58:47.987Z,24.40
2018-08-24T16:01:18.435Z,24.10
2018-08-24T16:03:50.072Z,23.89
2018-08-24T16:06:21.644Z,23.61
2018-08-24T16:08:51.581Z,23.37
2018-08-24T16:11:22.607Z,23.28
2018-08-24T16:13:54.209Z,23.27
2018-08-24T16:16:26.252Z,23.17
2018-08-24T16:18:56.897Z,23.10
2018-08-24T16:21:28.084Z,23.11
2018-08-24T16:23:58.965Z,23.13
2018-08-24T16:26:32.237Z,23.10
2018-08-24T16:29:03.556Z,22.99
2018-08-24T16:31:33.347Z,22.90
2018-08-24T16:34:06.352Z,22.86
2018-08-24T16:36:39.494Z,22.81
2018-08-24T16:39:10.653Z,22.83
2018-08-24T16:41:42.250Z,22.75
2018-08-24T16:44:15.869Z,22.67
2018-08-24T16:46:50.767Z,22.58
2018-08-24T16:49:38.667Z,22.54
2018-08-24T16:55:07.448Z,22.44
2018-08-24T16:57:41.381Z,22.48
2018-08-24T17:00:17.275Z,22.39
2018-08-24T17:02:51.567Z,22.37
2018-08-24T17:05:24.447Z,22.36
2018-08-24T17:07:59.627Z,22.21
2018-08-24T17:10:30.636Z,22.15
2018-08-24T17:13:00.758Z,22.18
2018-08-24T17:15:30.437Z,22.08
2018-08-24T17:17:59.857Z,22.09
2018-08-24T17:20:29.635Z,21.93
2018-08-24T17:22:59.448Z,21.87
2018-08-24T17:25:28.844Z,21.91
2018-08-24T17:27:58.559Z,21.81
2018-08-24T17:30:27.915Z,21.69
2018-08-24T17:32:57.352Z,21.60
2018-08-24T17:35:26.774Z,21.55
2018-08-24T17:37:56.180Z,21.51
2018-08-24T17:40:27.910Z,21.37
2018-08-24T17:42:58.295Z,21.42
2018-08-24T17:45:28.036Z,21.39
2018-08-24T17:47:58.527Z,21.31
2018-08-24T17:50:28.780Z,21.23
2018-08-24T17:52:58.314Z,21.21
2018-08-24T17:55:30.609Z,21.17
2018-08-24T17:58:00.284Z,21.13
2018-08-24T18:00:30.434Z,21.12
2018-08-24T18:03:00.285Z,21.07
2018-08-24T18:05:29.925Z,21.04
2018-08-24T18:08:00.168Z,21.00
2018-08-24T18:10:29.920Z,20.97
2018-08-24T18:12:59.892Z,21.01
2018-08-24T18:15:30.655Z,20.99
2018-08-24T18:18:01.430Z,20.94
2018-08-24T18:20:31.254Z,20.90
2018-08-24T18:23:03.956Z,20.84
2018-08-24T18:25:34.636Z,20.78
2018-08-24T18:28:06.963Z,20.75
2018-08-24T18:30:39.101Z,20.70
2018-08-24T18:33:13.979Z,20.64
2018-08-24T18:35:57.944Z,20.55
2018-08-24T18:38:28.499Z,20.39
2018-08-24T18:41:02.314Z,20.22
2018-08-24T18:43:33.947Z,20.07
2018-08-24T18:46:06.472Z,19.86
2018-08-24T18:48:36.450Z,19.67
2018-08-24T18:51:08.773Z,19.50
2018-08-24T18:53:46.153Z,19.40
2018-08-24T18:56:16.954Z,19.39
2018-08-24T18:58:48.603Z,19.25
2018-08-24T19:01:18.491Z,19.21
2018-08-24T19:03:49.321Z,19.11
2018-08-24T19:06:19.881Z,18.98
2018-08-24T19:08:51.143Z,18.86
2018-08-24T19:11:27.844Z,18.77
2018-08-24T19:13:59.401Z,18.68
2018-08-24T19:16:29.379Z,18.71
2018-08-24T19:19:04.139Z,18.93
2018-08-24T19:21:39.904Z,18.95
2018-08-24T19:24:15.869Z,19.04
2018-08-24T19:26:45.760Z,19.05
2018-08-24T19:29:20.527Z,18.95
2018-08-24T19:31:50.437Z,18.75
2018-08-24T19:34:20.385Z,18.62
2018-08-24T19:36:49.939Z,18.51
2018-08-24T19:39:20.448Z,18.46
2018-08-24T19:41:56.123Z,18.39
2018-08-24T19:44:28.581Z,18.27
2018-08-24T19:46:59.443Z,18.19
2018-08-24T19:49:29.758Z,18.10
2018-08-24T19:52:00.044Z,18.01
2018-08-24T19:54:31.830Z,17.89
2018-08-24T19:58:06.345Z,17.81
2018-08-24T20:00:36.249Z,17.69
2018-08-24T20:03:06.262Z,17.63
2018-08-24T20:05:36.963Z,17.58
2018-08-24T20:08:12.285Z,17.55
2018-08-24T20:10:43.283Z,17.52
2018-08-24T20:13:13.678Z,17.55
2018-08-24T20:15:48.993Z,17.54
2018-08-24T20:18:18.856Z,17.58
2018-08-24T20:20:48.606Z,17.54
2018-08-24T20:23:18.714Z,17.60
2018-08-24T20:25:49.407Z,17.67
2018-08-24T20:28:19.715Z,17.68
2018-08-24T20:30:49.686Z,17.73
2018-08-24T20:33:20.005Z,17.75
2018-08-24T20:35:50.547Z,17.65
2018-08-24T20:38:20.959Z,17.60
2018-08-24T20:40:50.728Z,17.68
2018-08-24T20:43:20.651Z,17.64
2018-08-24T20:45:50.979Z,17.66
2018-08-24T20:48:21.004Z,17.64
2018-08-24T20:50:50.670Z,17.62
2018-08-24T20:53:20.467Z,17.66
2018-08-24T20:55:50.501Z,17.76
2018-08-24T20:58:20.826Z,17.79
2018-08-24T21:00:50.747Z,17.81
2018-08-24T21:03:21.174Z,17.85
2018-08-24T21:05:51.871Z,17.87
2018-08-24T21:08:21.961Z,17.85
2018-08-24T21:10:52.461Z,17.77
2018-08-24T21:13:22.896Z,17.73
2018-08-24T21:15:53.118Z,17.75
2018-08-24T21:18:23.429Z,17.81
2018-08-24T21:20:53.564Z,17.82
2018-08-24T21:23:23.942Z,17.86
2018-08-24T21:25:53.836Z,17.91
2018-08-24T21:28:23.748Z,17.96
2018-08-24T21:30:54.898Z,18.02
2018-08-24T21:33:26.177Z,18.05
2018-08-24T21:35:56.387Z,18.08
2018-08-24T21:38:26.449Z,18.09
2018-08-24T21:40:56.574Z,18.10
2018-08-24T21:43:26.329Z,18.12
2018-08-24T21:45:56.463Z,18.14
2018-08-24T21:48:26.469Z,18.16
2018-08-24T21:50:56.759Z,18.20
2018-08-24T21:53:26.535Z,18.19
2018-08-24T21:55:56.898Z,18.19
2018-08-24T21:58:27.311Z,18.19
2018-08-24T22:00:57.680Z,18.19
2018-08-24T22:03:27.448Z,18.16
2018-08-24T22:05:57.315Z,18.15
2018-08-24T22:08:27.282Z,18.15
2018-08-24T22:10:57.086Z,18.16
2018-08-24T22:13:27.246Z,18.22
2018-08-24T22:16:07.843Z,18.22
2018-08-24T22:18:51.005Z,18.22
2018-08-24T22:21:38.740Z,18.20
2018-08-24T22:24:24.029Z,18.22
2018-08-24T22:27:08.327Z,18.25
2018-08-24T22:29:52.043Z,18.28
2018-08-24T22:32:33.402Z,18.30
2018-08-24T22:35:23.262Z,18.51
2018-08-24T22:38:07.229Z,18.58
2018-08-24T22:40:51.753Z,18.54
2018-08-24T22:43:37.676Z,18.65
2018-08-24T22:46:21.554Z,18.73
2018-08-24T22:49:08.113Z,18.78
2018-08-24T22:51:49.309Z,18.89
2018-08-24T22:54:32.585Z,18.81
2018-08-24T22:57:22.587Z,18.90
2018-08-24T23:00:05.944Z,18.89
2018-08-24T23:02:56.651Z,18.84
2018-08-24T23:05:46.448Z,18.79
2018-08-24T23:08:30.092Z,18.81
2018-08-24T23:11:15.187Z,18.70
2018-08-24T23:14:03.969Z,18.58
2018-08-24T23:16:47.371Z,18.48
2018-08-24T23:19:30.999Z,18.35
2018-08-24T23:22:14.993Z,18.10
2018-08-24T23:24:58.963Z,17.94
2018-08-24T23:27:41.961Z,18.03
2018-08-24T23:30:28.987Z,17.90
2018-08-24T23:33:13.976Z,17.82
2018-08-24T23:35:58.373Z,17.80
2018-08-24T23:38:41.556Z,17.70
2018-08-24T23:41:25.049Z,17.52
2018-08-24T23:44:13.159Z,17.29
2018-08-24T23:47:00.857Z,17.11
2018-08-24T23:49:45.181Z,17.05
2018-08-24T23:52:29.569Z,16.96
2018-08-24T23:55:13.615Z,16.88
2018-08-24T23:57:59.485Z,16.86
